Terminal Aerodrome Forecast
Issued by NWS

Home | Current Version | Previous Version | Text Only | Print | Product List | Glossary On
Versions: 1 2 3 4 5 6 7 8 9 10 11 12 13
000
FTUS45 KRIW 222300
TAFCOD
TAF
KCOD 222327Z 2300/2324 25012G20KT P6SM VCSH SCT040 BKN060
     FM230500 25014G24KT P6SM BKN060
     FM231600 25009KT P6SM SCT070
     FM232000 16006KT P6SM FEW070
      AMD LTD TO CLD VIS AND WIND=

USA.gov is the U.S. government's official web portal to all federal, state and local government web resources and services.